Time;durP1;ratioP1;P1;durP2;ratioP2;P2;SDS_P1;SDS_P2;PMS_P1;PMS_P2;Temp;Humidity;BMP_temperature;BMP_pressure;BME280_temperature;BME280_humidity;BME280_pressure;Samples;Min_cycle;Max_cycle;Signal;HPM_P1;HPM_P2
2021/03/01 00:00:15;;;;;;;60.25;18.38;;;;;;;;;;5003823;28;20030;-65
2021/03/01 00:02:41;;;;;;;58.50;17.48;;;;;;;;;;5004162;28;20777;-65
2021/03/01 00:05:06;;;;;;;53.92;19.15;;;;;;;;;;4995356;28;20045;-65
2021/03/01 00:07:32;;;;;;;60.75;19.23;;;;;;;;;;4994126;28;20527;-65
2021/03/01 00:09:57;;;;;;;49.72;18.10;;;;;;;;;;5010637;28;20021;-65
2021/03/01 00:12:23;;;;;;;44.63;19.08;;;;;;;;;;5002850;28;20109;-65
2021/03/01 00:14:48;;;;;;;58.63;18.15;;;;;;;;;;4991897;28;20407;-65
2021/03/01 00:17:13;;;;;;;49.75;17.45;;;;;;;;;;4992537;28;20046;-66
2021/03/01 00:19:38;;;;;;;57.25;19.42;;;;;;;;;;4995503;28;20463;-65
2021/03/01 00:22:04;;;;;;;44.63;16.90;;;;;;;;;;4994584;28;20049;-65
2021/03/01 00:24:29;;;;;;;43.53;17.33;;;;;;;;;;4995541;28;20130;-65
2021/03/01 00:26:54;;;;;;;54.70;18.35;;;;;;;;;;4995830;28;20030;-64
2021/03/01 00:29:19;;;;;;;53.03;17.08;;;;;;;;;;4995747;28;20145;-65
2021/03/01 00:31:45;;;;;;;50.90;17.13;;;;;;;;;;4996061;28;20033;-65
2021/03/01 00:34:10;;;;;;;53.28;18.25;;;;;;;;;;4995424;28;20050;-64
2021/03/01 00:36:35;;;;;;;67.00;20.10;;;;;;;;;;4995667;28;20038;-65
2021/03/01 00:39:01;;;;;;;51.05;16.92;;;;;;;;;;4995431;28;20026;-65
2021/03/01 00:41:26;;;;;;;59.85;17.25;;;;;;;;;;4995228;28;20475;-64
2021/03/01 00:43:51;;;;;;;61.63;16.60;;;;;;;;;;4995175;28;20434;-64
2021/03/01 00:46:16;;;;;;;58.42;17.80;;;;;;;;;;4995357;28;20096;-65
2021/03/01 00:48:42;;;;;;;59.08;18.45;;;;;;;;;;4995668;28;20518;-64
2021/03/01 00:51:07;;;;;;;46.22;17.63;;;;;;;;;;4995370;28;20038;-64
2021/03/01 00:53:32;;;;;;;52.97;17.25;;;;;;;;;;4995227;28;20141;-65
2021/03/01 00:55:58;;;;;;;57.97;17.02;;;;;;;;;;4995320;28;20459;-65
2021/03/01 00:58:23;;;;;;;50.90;16.58;;;;;;;;;;4995220;28;20428;-64
2021/03/01 01:00:50;;;;;;;50.80;17.33;;;;;;;;;;4995539;28;20552;-64
2021/03/01 01:03:16;;;;;;;48.80;15.88;;;;;;;;;;4995047;28;20057;-66
2021/03/01 01:05:41;;;;;;;53.63;18.48;;;;;;;;;;4991068;28;20069;-65
2021/03/01 01:08:06;;;;;;;49.13;16.52;;;;;;;;;;4994199;28;20382;-65
2021/03/01 01:10:32;;;;;;;53.47;18.17;;;;;;;;;;4994876;28;20026;-64
2021/03/01 01:12:58;;;;;;;63.80;18.15;;;;;;;;;;4994585;28;20042;-64
2021/03/01 01:15:23;;;;;;;53.70;18.35;;;;;;;;;;4994964;28;20082;-64
2021/03/01 01:17:48;;;;;;;76.78;21.25;;;;;;;;;;4994825;28;20467;-64
2021/03/01 01:20:14;;;;;;;57.65;18.13;;;;;;;;;;4993979;28;20042;-64
2021/03/01 01:22:40;;;;;;;55.70;18.60;;;;;;;;;;4994784;28;20019;-64
2021/03/01 01:25:06;;;;;;;55.60;17.80;;;;;;;;;;4994734;28;20135;-65
2021/03/01 01:27:32;;;;;;;60.80;19.67;;;;;;;;;;4994619;28;20056;-65
2021/03/01 01:29:57;;;;;;;55.38;18.50;;;;;;;;;;4994725;28;20105;-64
2021/03/01 01:32:22;;;;;;;57.97;19.63;;;;;;;;;;4983852;28;20077;-64
2021/03/01 01:34:48;;;;;;;60.47;18.98;;;;;;;;;;4990461;28;20080;-65
2021/03/01 01:37:13;;;;;;;62.55;18.63;;;;;;;;;;4991842;28;20463;-64
2021/03/01 01:39:38;;;;;;;53.90;18.25;;;;;;;;;;4991855;28;20026;-65
2021/03/01 01:42:03;;;;;;;61.95;20.10;;;;;;;;;;4991630;28;20038;-65
2021/03/01 01:44:29;;;;;;;50.75;17.08;;;;;;;;;;4990906;28;20054;-65
2021/03/01 01:46:54;;;;;;;69.00;19.80;;;;;;;;;;4991443;28;20038;-64
2021/03/01 01:49:19;;;;;;;66.38;18.92;;;;;;;;;;4990792;28;20949;-64
2021/03/01 01:51:44;;;;;;;66.25;19.73;;;;;;;;;;4990948;28;20423;-65
2021/03/01 01:54:10;;;;;;;61.50;18.90;;;;;;;;;;4990486;28;20046;-65
2021/03/01 01:56:36;;;;;;;58.83;18.08;;;;;;;;;;4991160;28;20034;-67
2021/03/01 01:59:01;;;;;;;59.10;18.48;;;;;;;;;;4991110;28;20522;-65
2021/03/01 02:01:26;;;;;;;62.65;19.17;;;;;;;;;;4990632;28;20408;-65
2021/03/01 02:03:57;;;;;;;59.83;18.60;;;;;;;;;;4990447;28;20475;-65
2021/03/01 02:06:41;;;;;;;64.38;18.55;;;;;;;;;;4990621;28;20849;-65
2021/03/01 02:09:13;;;;;;;65.70;19.25;;;;;;;;;;4990638;28;20034;-64
2021/03/01 02:11:44;;;;;;;62.83;18.42;;;;;;;;;;4990651;28;20033;-64
2021/03/01 02:14:17;;;;;;;62.65;18.90;;;;;;;;;;4990198;28;20034;-64
2021/03/01 02:16:42;;;;;;;63.30;20.90;;;;;;;;;;4990597;28;20030;-64
2021/03/01 02:19:08;;;;;;;66.65;19.70;;;;;;;;;;4990508;28;20109;-64
2021/03/01 02:21:44;;;;;;;60.90;19.02;;;;;;;;;;4990212;28;20037;-65
2021/03/01 02:24:10;;;;;;;59.85;19.13;;;;;;;;;;4990167;28;20026;-64
2021/03/01 02:26:35;;;;;;;56.47;18.45;;;;;;;;;;4990544;28;20033;-64
2021/03/01 02:29:11;;;;;;;65.90;20.02;;;;;;;;;;4990514;28;20125;-66
2021/03/01 02:31:38;;;;;;;62.63;19.33;;;;;;;;;;4989268;28;20030;-65
2021/03/01 02:34:04;;;;;;;60.80;18.55;;;;;;;;;;4990492;28;20053;-64
2021/03/01 02:36:35;;;;;;;63.67;18.95;;;;;;;;;;4990534;28;20037;-64
2021/03/01 02:39:03;;;;;;;63.42;19.67;;;;;;;;;;4990551;28;20037;-65
2021/03/01 02:41:30;;;;;;;63.97;18.90;;;;;;;;;;4990241;28;20030;-64
2021/03/01 02:43:55;;;;;;;66.50;19.25;;;;;;;;;;4966873;28;671462;-64
2021/03/01 02:46:21;;;;;;;71.75;19.52;;;;;;;;;;4991076;28;20090;-64
2021/03/01 02:48:48;;;;;;;57.38;19.65;;;;;;;;;;4990973;28;20097;-65
2021/03/01 02:51:14;;;;;;;77.10;22.40;;;;;;;;;;4991475;28;20046;-64
2021/03/01 02:53:40;;;;;;;68.68;19.08;;;;;;;;;;4990851;28;20050;-64
2021/03/01 02:56:07;;;;;;;57.58;18.30;;;;;;;;;;4990634;28;20121;-64
2021/03/01 02:58:33;;;;;;;64.68;19.48;;;;;;;;;;4990903;28;20081;-64
2021/03/01 03:00:59;;;;;;;65.40;18.67;;;;;;;;;;4990943;28;20081;-64
2021/03/01 03:03:25;;;;;;;68.00;20.35;;;;;;;;;;4991072;28;20034;-64
2021/03/01 03:05:51;;;;;;;76.15;21.85;;;;;;;;;;4990798;28;20015;-64
2021/03/01 03:08:17;;;;;;;87.20;22.80;;;;;;;;;;4990696;28;20027;-64
2021/03/01 03:10:44;;;;;;;76.82;20.50;;;;;;;;;;4990877;28;20034;-64
2021/03/01 03:13:10;;;;;;;71.07;21.50;;;;;;;;;;4990562;28;20054;-65
2021/03/01 03:15:36;;;;;;;78.15;22.05;;;;;;;;;;4991293;28;20460;-64
2021/03/01 03:18:02;;;;;;;76.57;21.20;;;;;;;;;;4990982;28;20042;-64
2021/03/01 03:20:28;;;;;;;75.50;21.27;;;;;;;;;;4990579;28;20028;-64
2021/03/01 03:22:53;;;;;;;74.10;22.55;;;;;;;;;;4990215;28;20026;-64
2021/03/01 03:25:19;;;;;;;89.90;21.85;;;;;;;;;;4990432;28;20039;-65
2021/03/01 03:27:44;;;;;;;76.18;20.95;;;;;;;;;;4991189;28;20031;-65
2021/03/01 03:30:11;;;;;;;75.13;22.90;;;;;;;;;;4990888;28;20041;-64
2021/03/01 03:32:37;;;;;;;66.07;21.17;;;;;;;;;;4990044;28;20443;-64
2021/03/01 03:35:04;;;;;;;80.13;20.90;;;;;;;;;;4990079;28;20022;-64
2021/03/01 03:37:32;;;;;;;67.57;19.38;;;;;;;;;;4990307;28;20027;-64
2021/03/01 03:39:58;;;;;;;66.15;21.38;;;;;;;;;;4990299;28;20529;-65
2021/03/01 03:42:24;;;;;;;76.72;22.10;;;;;;;;;;4991611;28;20015;-64
2021/03/01 03:44:53;;;;;;;72.05;20.58;;;;;;;;;;4993439;28;20054;-65
2021/03/01 03:47:19;;;;;;;76.20;20.70;;;;;;;;;;4993884;28;20080;-66
2021/03/01 03:49:44;;;;;;;73.57;19.52;;;;;;;;;;4994014;28;20022;-65
2021/03/01 03:52:12;;;;;;;78.88;21.65;;;;;;;;;;4993853;28;20383;-64
2021/03/01 03:54:39;;;;;;;81.35;20.80;;;;;;;;;;4993564;28;20117;-67
2021/03/01 03:57:07;;;;;;;69.40;20.60;;;;;;;;;;4994078;28;20537;-64
2021/03/01 03:59:33;;;;;;;69.18;20.25;;;;;;;;;;4993786;28;20045;-65
2021/03/01 04:01:58;;;;;;;65.25;20.52;;;;;;;;;;4993457;28;20038;-64
2021/03/01 04:04:25;;;;;;;73.70;21.38;;;;;;;;;;4993380;28;20014;-64
2021/03/01 04:06:51;;;;;;;82.25;21.45;;;;;;;;;;4993508;28;20060;-64
2021/03/01 04:09:17;;;;;;;64.75;19.73;;;;;;;;;;4993688;28;20069;-64
2021/03/01 04:11:44;;;;;;;79.88;20.58;;;;;;;;;;4993445;28;20418;-64
2021/03/01 04:14:11;;;;;;;63.70;20.00;;;;;;;;;;4993146;28;20046;-64
2021/03/01 04:16:37;;;;;;;72.30;20.90;;;;;;;;;;4993508;28;20042;-64
2021/03/01 04:19:03;;;;;;;85.22;18.90;;;;;;;;;;4993421;28;20016;-65
2021/03/01 04:21:29;;;;;;;69.82;18.23;;;;;;;;;;4993422;28;20220;-64
2021/03/01 04:23:56;;;;;;;65.32;20.02;;;;;;;;;;4993610;28;20124;-64
2021/03/01 04:26:21;;;;;;;79.03;20.33;;;;;;;;;;4993350;28;20018;-65
2021/03/01 04:28:47;;;;;;;76.47;20.58;;;;;;;;;;4993112;28;20029;-64
2021/03/01 04:31:13;;;;;;;72.10;19.63;;;;;;;;;;4993151;28;20117;-65
2021/03/01 04:33:40;;;;;;;77.95;21.52;;;;;;;;;;4993014;28;20049;-65
2021/03/01 04:36:07;;;;;;;67.53;20.85;;;;;;;;;;4993695;28;20117;-64
2021/03/01 04:38:33;;;;;;;87.88;21.05;;;;;;;;;;4992747;28;20061;-64
2021/03/01 04:40:58;;;;;;;75.80;20.63;;;;;;;;;;4993067;28;20023;-64
2021/03/01 04:43:26;;;;;;;59.15;18.85;;;;;;;;;;4992044;28;20456;-64
2021/03/01 04:45:52;;;;;;;73.85;20.17;;;;;;;;;;4992927;28;20034;-64
2021/03/01 04:48:18;;;;;;;75.03;20.23;;;;;;;;;;4993315;28;20517;-64
2021/03/01 04:50:46;;;;;;;72.45;20.23;;;;;;;;;;4992903;28;20030;-65
2021/03/01 04:53:11;;;;;;;70.82;20.38;;;;;;;;;;4991071;28;20426;-65
2021/03/01 04:55:37;;;;;;;84.45;21.67;;;;;;;;;;4972260;28;20026;-65
2021/03/01 04:58:03;;;;;;;53.95;18.95;;;;;;;;;;4973319;28;20031;-65
2021/03/01 05:00:28;;;;;;;60.50;18.63;;;;;;;;;;4973354;28;20098;-67
2021/03/01 05:02:55;;;;;;;63.67;20.60;;;;;;;;;;4972174;28;20069;-64
2021/03/01 05:05:20;;;;;;;76.80;21.50;;;;;;;;;;4972997;28;20026;-65
2021/03/01 05:07:46;;;;;;;60.20;20.33;;;;;;;;;;4972915;28;20041;-64
2021/03/01 05:10:12;;;;;;;63.42;20.27;;;;;;;;;;4973223;28;20023;-64
2021/03/01 05:12:37;;;;;;;68.65;20.38;;;;;;;;;;4973048;28;20046;-66
2021/03/01 05:15:03;;;;;;;67.80;20.00;;;;;;;;;;4972982;28;20042;-65
2021/03/01 05:17:28;;;;;;;59.53;18.33;;;;;;;;;;4972853;28;20019;-64
2021/03/01 05:19:54;;;;;;;74.15;20.55;;;;;;;;;;4972688;28;20113;-64
2021/03/01 05:22:19;;;;;;;64.72;19.63;;;;;;;;;;4972787;28;20039;-65
2021/03/01 05:24:44;;;;;;;68.10;18.45;;;;;;;;;;4973029;28;20023;-64
2021/03/01 05:27:09;;;;;;;63.85;18.73;;;;;;;;;;4972647;28;20031;-64
2021/03/01 05:29:35;;;;;;;69.47;21.25;;;;;;;;;;4972578;28;20054;-64
2021/03/01 05:32:00;;;;;;;56.47;17.90;;;;;;;;;;4972716;28;20015;-65
2021/03/01 05:34:25;;;;;;;77.47;21.33;;;;;;;;;;4972121;28;20484;-65
2021/03/01 05:36:51;;;;;;;61.42;19.23;;;;;;;;;;4971816;28;20041;-64
2021/03/01 05:39:16;;;;;;;70.25;18.52;;;;;;;;;;4972309;28;20127;-64
2021/03/01 05:41:42;;;;;;;65.82;18.77;;;;;;;;;;4976384;28;20125;-64
2021/03/01 05:44:08;;;;;;;76.35;18.90;;;;;;;;;;4991153;28;20477;-65
2021/03/01 05:46:34;;;;;;;63.53;18.35;;;;;;;;;;4992485;28;20098;-64
2021/03/01 05:48:59;;;;;;;65.90;19.02;;;;;;;;;;4991967;28;20022;-64
2021/03/01 05:51:25;;;;;;;70.30;19.35;;;;;;;;;;4991764;28;20045;-64
2021/03/01 05:53:51;;;;;;;69.70;18.20;;;;;;;;;;4991325;28;20073;-64
2021/03/01 05:56:16;;;;;;;59.03;17.52;;;;;;;;;;4991577;28;20026;-65
2021/03/01 05:58:42;;;;;;;68.10;18.92;;;;;;;;;;4991988;28;20398;-64
2021/03/01 06:01:07;;;;;;;62.45;18.00;;;;;;;;;;4991575;28;20022;-64
2021/03/01 06:03:34;;;;;;;66.68;18.73;;;;;;;;;;4991255;28;20113;-64
2021/03/01 06:05:59;;;;;;;77.57;19.15;;;;;;;;;;4991461;28;20089;-64
2021/03/01 06:08:25;;;;;;;76.93;20.17;;;;;;;;;;4990972;28;20407;-64
2021/03/01 06:11:01;;;;;;;75.68;19.58;;;;;;;;;;4992018;28;20030;-64
2021/03/01 06:13:26;;;;;;;65.45;18.27;;;;;;;;;;4990970;28;20046;-65
2021/03/01 06:15:55;;;;;;;73.07;18.73;;;;;;;;;;4991972;28;20092;-64
2021/03/01 06:18:21;;;;;;;62.50;19.13;;;;;;;;;;4991113;28;20165;-64
2021/03/01 06:20:46;;;;;;;70.00;18.13;;;;;;;;;;4991264;28;20097;-64
2021/03/01 06:23:11;;;;;;;74.80;19.15;;;;;;;;;;4990871;28;20121;-64
2021/03/01 06:25:37;;;;;;;74.50;20.55;;;;;;;;;;4991276;28;20050;-65
2021/03/01 06:28:04;;;;;;;83.65;19.63;;;;;;;;;;4991702;28;20026;-64
2021/03/01 06:30:34;;;;;;;71.43;19.23;;;;;;;;;;4990751;28;20403;-65
2021/03/01 06:33:09;;;;;;;68.78;18.58;;;;;;;;;;4990887;28;20045;-64
2021/03/01 06:35:34;;;;;;;67.85;18.40;;;;;;;;;;4991413;28;20037;-64
2021/03/01 06:38:18;;;;;;;55.60;18.95;;;;;;;;;;4991138;28;20042;-65
2021/03/01 06:40:44;;;;;;;74.75;20.85;;;;;;;;;;4991365;28;20497;-64
2021/03/01 06:43:10;;;;;;;73.25;21.33;;;;;;;;;;4990483;28;20456;-65
2021/03/01 06:45:36;;;;;;;76.53;22.50;;;;;;;;;;4991109;28;20031;-64
2021/03/01 06:48:01;;;;;;;72.63;22.02;;;;;;;;;;4990931;28;20038;-64
2021/03/01 06:50:33;;;;;;;82.93;24.08;;;;;;;;;;4990909;28;20027;-64
2021/03/01 06:53:04;;;;;;;72.78;23.42;;;;;;;;;;4990592;28;20164;-66
2021/03/01 06:55:30;;;;;;;72.05;21.13;;;;;;;;;;4990868;28;20038;-64
2021/03/01 06:57:55;;;;;;;68.13;21.30;;;;;;;;;;4991138;28;20038;-64
2021/03/01 07:00:26;;;;;;;71.60;21.30;;;;;;;;;;4990857;28;20164;-64
2021/03/01 07:02:52;;;;;;;74.75;22.98;;;;;;;;;;4990659;28;20026;-64
2021/03/01 07:05:17;;;;;;;68.43;22.15;;;;;;;;;;4990606;28;20105;-64
2021/03/01 07:07:43;;;;;;;80.90;21.65;;;;;;;;;;4990903;28;20018;-64
2021/03/01 07:10:09;;;;;;;72.60;21.17;;;;;;;;;;4991017;28;20062;-66
2021/03/01 07:12:41;;;;;;;68.28;19.92;;;;;;;;;;4991040;28;20484;-64
2021/03/01 07:15:08;;;;;;;65.00;19.48;;;;;;;;;;4989725;28;20476;-65
2021/03/01 07:17:35;;;;;;;61.75;18.73;;;;;;;;;;4991194;28;20027;-64
2021/03/01 07:20:01;;;;;;;67.57;19.10;;;;;;;;;;4994404;28;20034;-65
2021/03/01 07:22:27;;;;;;;61.22;23.17;;;;;;;;;;4994446;28;20356;-65
2021/03/01 07:24:52;;;;;;;63.95;22.73;;;;;;;;;;4987772;28;20034;-64
2021/03/01 07:27:19;;;;;;;76.28;27.83;;;;;;;;;;4979479;28;20035;-64
2021/03/01 07:29:44;;;;;;;77.57;30.63;;;;;;;;;;4974800;28;20019;-64
2021/03/01 07:32:12;;;;;;;87.72;32.28;;;;;;;;;;4974797;28;20038;-65
2021/03/01 07:34:38;;;;;;;95.43;31.98;;;;;;;;;;4974117;28;20475;-64
2021/03/01 07:37:04;;;;;;;100.00;34.10;;;;;;;;;;4977354;28;20015;-64
2021/03/01 07:39:29;;;;;;;90.07;31.75;;;;;;;;;;4983463;28;20037;-65
2021/03/01 07:41:55;;;;;;;89.68;32.42;;;;;;;;;;4979862;28;20479;-64
2021/03/01 07:44:33;;;;;;;97.55;35.03;;;;;;;;;;4993705;28;20074;-64
2021/03/01 07:47:00;;;;;;;97.93;35.90;;;;;;;;;;4993682;28;20541;-64
2021/03/01 07:49:36;;;;;;;142.32;54.63;;;;;;;;;;4991027;28;20458;-65
2021/03/01 07:52:01;;;;;;;75.10;28.77;;;;;;;;;;4982945;28;20031;-64
2021/03/01 07:54:45;;;;;;;113.28;38.95;;;;;;;;;;4973995;28;20047;-65
2021/03/01 07:57:11;;;;;;;128.60;45.35;;;;;;;;;;4975088;28;20031;-65
2021/03/01 07:59:36;;;;;;;131.82;50.28;;;;;;;;;;4976270;28;20093;-65
2021/03/01 08:02:08;;;;;;;82.65;31.35;;;;;;;;;;4977027;28;20023;-65
2021/03/01 08:04:37;;;;;;;113.72;31.25;;;;;;;;;;4976651;28;20070;-65
2021/03/01 08:07:02;;;;;;;133.30;36.30;;;;;;;;;;4976902;28;20033;-65
2021/03/01 08:09:41;;;;;;;146.80;36.63;;;;;;;;;;4976638;28;20019;-65
2021/03/01 08:12:07;;;;;;;150.93;38.92;;;;;;;;;;4976701;28;20137;-65
2021/03/01 08:14:50;;;;;;;124.25;33.35;;;;;;;;;;4976504;28;20118;-65
2021/03/01 08:17:31;;;;;;;151.55;38.53;;;;;;;;;;4976345;28;20530;-65
2021/03/01 08:20:12;;;;;;;134.93;36.88;;;;;;;;;;4976224;28;20034;-65
2021/03/01 08:22:55;;;;;;;130.20;37.45;;;;;;;;;;4968840;28;20117;-65
2021/03/01 08:25:41;;;;;;;131.85;35.67;;;;;;;;;;4972540;28;20050;-65
2021/03/01 08:28:06;;;;;;;136.13;32.70;;;;;;;;;;4973137;28;20037;-65
2021/03/01 08:30:34;;;;;;;135.27;37.20;;;;;;;;;;4971915;28;20034;-65
2021/03/01 08:33:09;;;;;;;138.38;36.17;;;;;;;;;;4972379;28;20050;-68
2021/03/01 08:35:35;;;;;;;131.88;37.60;;;;;;;;;;4971243;28;20415;-65
2021/03/01 08:38:00;;;;;;;145.15;37.33;;;;;;;;;;4985891;28;20042;-66
2021/03/01 08:40:25;;;;;;;136.20;36.50;;;;;;;;;;4990182;28;20064;-66
2021/03/01 08:42:57;;;;;;;126.47;37.15;;;;;;;;;;4985571;28;20034;-65
2021/03/01 08:45:23;;;;;;;131.10;36.97;;;;;;;;;;4980913;28;20054;-65
2021/03/01 08:47:49;;;;;;;127.72;35.00;;;;;;;;;;4972056;28;20023;-65
2021/03/01 08:50:14;;;;;;;117.40;36.08;;;;;;;;;;4970798;28;20194;-65
2021/03/01 08:52:45;;;;;;;150.95;37.92;;;;;;;;;;4971905;28;20129;-65
2021/03/01 08:55:11;;;;;;;113.65;34.13;;;;;;;;;;4987667;28;20054;-65
2021/03/01 08:57:53;;;;;;;119.60;35.30;;;;;;;;;;4991845;28;20085;-65
2021/03/01 09:00:18;;;;;;;126.55;36.08;;;;;;;;;;4991220;28;20045;-65
2021/03/01 09:02:44;;;;;;;133.82;35.22;;;;;;;;;;4992066;28;20038;-65
2021/03/01 09:05:10;;;;;;;139.05;37.00;;;;;;;;;;4991239;28;20041;-66
2021/03/01 09:07:42;;;;;;;130.20;34.55;;;;;;;;;;4991611;28;20463;-65
2021/03/01 09:10:08;;;;;;;133.10;37.08;;;;;;;;;;4984493;28;20042;-66
2021/03/01 09:12:33;;;;;;;119.22;34.03;;;;;;;;;;4984481;28;20043;-66
2021/03/01 09:14:58;;;;;;;133.45;36.20;;;;;;;;;;4974197;28;20105;-66
2021/03/01 09:17:24;;;;;;;121.63;34.92;;;;;;;;;;4982844;28;20038;-66
2021/03/01 09:19:49;;;;;;;125.88;34.92;;;;;;;;;;4972209;28;20039;-65
2021/03/01 09:22:14;;;;;;;111.15;34.88;;;;;;;;;;4971304;28;20030;-65
2021/03/01 09:24:40;;;;;;;108.00;32.75;;;;;;;;;;4971860;28;20038;-65
2021/03/01 09:27:05;;;;;;;106.93;33.95;;;;;;;;;;4971719;28;20042;-65
2021/03/01 09:29:31;;;;;;;105.82;34.42;;;;;;;;;;4971182;28;20154;-65
2021/03/01 09:31:57;;;;;;;112.82;34.97;;;;;;;;;;4971380;28;20073;-68
2021/03/01 09:34:26;;;;;;;106.20;32.95;;;;;;;;;;4982631;28;20557;-66
2021/03/01 09:36:52;;;;;;;100.80;34.83;;;;;;;;;;4984139;28;20025;-65
2021/03/01 09:39:26;;;;;;;107.35;34.35;;;;;;;;;;4981538;28;20027;-65
2021/03/01 09:41:53;;;;;;;89.90;29.37;;;;;;;;;;4988082;28;20053;-65
2021/03/01 09:44:26;;;;;;;105.75;32.53;;;;;;;;;;4988786;28;20050;-65
2021/03/01 09:46:52;;;;;;;90.72;34.90;;;;;;;;;;4979718;28;20031;-65
2021/03/01 09:49:18;;;;;;;88.72;32.78;;;;;;;;;;4980565;28;20522;-66
2021/03/01 09:51:44;;;;;;;83.47;31.85;;;;;;;;;;4990029;28;20117;-65
2021/03/01 09:54:10;;;;;;;77.82;30.30;;;;;;;;;;4990048;28;20074;-65
2021/03/01 09:56:38;;;;;;;79.78;31.15;;;;;;;;;;4990534;28;20106;-66
2021/03/01 09:59:03;;;;;;;73.07;29.77;;;;;;;;;;4990388;28;20033;-68
2021/03/01 10:01:28;;;;;;;76.97;30.27;;;;;;;;;;4990331;28;20034;-65
2021/03/01 10:03:53;;;;;;;72.55;29.90;;;;;;;;;;4989751;28;20037;-66
2021/03/01 10:06:42;;;;;;;68.72;28.23;;;;;;;;;;4987836;28;20057;-65
2021/03/01 10:09:09;;;;;;;69.60;28.63;;;;;;;;;;4990313;28;20127;-65
2021/03/01 10:11:35;;;;;;;65.60;27.58;;;;;;;;;;4990773;28;20120;-65
2021/03/01 10:14:01;;;;;;;59.05;27.45;;;;;;;;;;4989850;28;20117;-67
2021/03/01 10:16:33;;;;;;;56.50;27.05;;;;;;;;;;4994651;28;20089;-65
2021/03/01 10:19:18;;;;;;;57.88;26.27;;;;;;;;;;4988611;28;20035;-65
2021/03/01 10:21:44;;;;;;;49.65;24.23;;;;;;;;;;4994594;28;20491;-66
2021/03/01 10:24:10;;;;;;;52.97;25.05;;;;;;;;;;5002983;28;20030;-66
2021/03/01 10:26:49;;;;;;;51.67;23.92;;;;;;;;;;4997434;28;20096;-66
2021/03/01 10:29:15;;;;;;;50.22;22.90;;;;;;;;;;5004520;28;20234;-65
2021/03/01 10:31:40;;;;;;;52.97;23.73;;;;;;;;;;4988602;28;20046;-67
2021/03/01 10:34:06;;;;;;;43.88;22.65;;;;;;;;;;4992392;28;20093;-66
2021/03/01 10:36:52;;;;;;;47.80;22.65;;;;;;;;;;4990428;28;20026;-65
2021/03/01 10:39:19;;;;;;;48.67;22.33;;;;;;;;;;4987437;28;20487;-66
2021/03/01 10:41:45;;;;;;;44.70;21.35;;;;;;;;;;4989271;28;20022;-66
2021/03/01 10:44:12;;;;;;;43.50;21.52;;;;;;;;;;4988619;28;20050;-66
2021/03/01 10:46:47;;;;;;;43.45;21.20;;;;;;;;;;4989306;28;20471;-66
2021/03/01 10:49:15;;;;;;;35.42;17.42;;;;;;;;;;4990385;28;20476;-66
2021/03/01 10:51:41;;;;;;;28.20;16.23;;;;;;;;;;4988988;28;20454;-66
2021/03/01 10:54:06;;;;;;;33.22;17.00;;;;;;;;;;4989959;28;20391;-66
2021/03/01 10:56:31;;;;;;;34.78;17.67;;;;;;;;;;4992909;28;20034;-66
2021/03/01 10:58:57;;;;;;;38.90;18.75;;;;;;;;;;4978458;28;20042;-66
2021/03/01 11:01:29;;;;;;;29.48;17.00;;;;;;;;;;4992468;28;20018;-66
2021/03/01 11:03:55;;;;;;;33.03;15.77;;;;;;;;;;4993166;28;20230;-66
2021/03/01 11:06:20;;;;;;;32.58;16.75;;;;;;;;;;4990373;28;20022;-65
2021/03/01 11:08:45;;;;;;;29.92;16.25;;;;;;;;;;4994636;28;20025;-66
2021/03/01 11:11:11;;;;;;;32.67;16.33;;;;;;;;;;4993688;28;20084;-66
2021/03/01 11:13:37;;;;;;;27.45;15.32;;;;;;;;;;4990201;28;20398;-66
2021/03/01 11:16:02;;;;;;;26.27;13.52;;;;;;;;;;4989958;28;20019;-66
2021/03/01 11:18:27;;;;;;;27.13;14.18;;;;;;;;;;4992485;28;20034;-66
2021/03/01 11:20:52;;;;;;;28.00;15.63;;;;;;;;;;4988351;28;20026;-66
2021/03/01 11:23:18;;;;;;;22.38;11.23;;;;;;;;;;4990873;28;20014;-66
2021/03/01 11:25:43;;;;;;;28.80;15.95;;;;;;;;;;4992540;28;20026;-65
2021/03/01 11:28:10;;;;;;;27.27;14.43;;;;;;;;;;4992582;28;20038;-66
2021/03/01 11:30:35;;;;;;;28.30;14.98;;;;;;;;;;4992953;28;20049;-65
2021/03/01 11:33:01;;;;;;;30.92;16.50;;;;;;;;;;4987673;28;20046;-66
2021/03/01 11:35:26;;;;;;;29.38;14.50;;;;;;;;;;4995876;28;20101;-68
2021/03/01 11:37:51;;;;;;;25.10;14.27;;;;;;;;;;4996149;28;20023;-66
2021/03/01 11:40:17;;;;;;;26.15;13.65;;;;;;;;;;4991844;28;20323;-66
2021/03/01 11:42:43;;;;;;;26.38;13.52;;;;;;;;;;5002846;28;20037;-66
2021/03/01 11:45:09;;;;;;;31.02;15.07;;;;;;;;;;4995622;28;20726;-67
2021/03/01 11:47:34;;;;;;;25.70;13.98;;;;;;;;;;4989024;28;20034;-66
2021/03/01 11:50:00;;;;;;;29.33;15.52;;;;;;;;;;4989060;28;20038;-68
2021/03/01 11:52:25;;;;;;;28.50;15.13;;;;;;;;;;4989723;28;20463;-66
2021/03/01 11:54:50;;;;;;;25.60;13.75;;;;;;;;;;4988347;28;20031;-66
2021/03/01 11:57:15;;;;;;;23.35;13.75;;;;;;;;;;4982950;28;20093;-66
2021/03/01 11:59:41;;;;;;;28.23;14.15;;;;;;;;;;4982599;28;20430;-66
2021/03/01 12:02:06;;;;;;;27.13;15.13;;;;;;;;;;4989213;28;20076;-66
2021/03/01 12:04:31;;;;;;;25.33;13.32;;;;;;;;;;4986319;28;20483;-66
2021/03/01 12:06:56;;;;;;;26.33;14.93;;;;;;;;;;4989150;28;20486;-66
2021/03/01 12:09:22;;;;;;;28.40;15.23;;;;;;;;;;4988637;28;20076;-67
2021/03/01 12:11:47;;;;;;;26.33;14.30;;;;;;;;;;4996282;28;20042;-66
2021/03/01 12:14:12;;;;;;;24.27;13.77;;;;;;;;;;5007621;28;20034;-66
2021/03/01 12:16:38;;;;;;;28.05;16.10;;;;;;;;;;4992806;28;20486;-66
2021/03/01 12:19:03;;;;;;;27.80;15.10;;;;;;;;;;4989203;28;20046;-66
2021/03/01 12:21:29;;;;;;;27.55;14.05;;;;;;;;;;5000250;28;20530;-66
2021/03/01 12:23:54;;;;;;;28.48;15.02;;;;;;;;;;5003736;28;20439;-66
2021/03/01 12:26:19;;;;;;;26.95;13.65;;;;;;;;;;5001043;28;20947;-66
2021/03/01 12:28:44;;;;;;;26.55;15.27;;;;;;;;;;4989361;28;20031;-66
2021/03/01 12:31:10;;;;;;;26.38;16.13;;;;;;;;;;5003885;28;20037;-67
2021/03/01 12:33:35;;;;;;;32.03;16.08;;;;;;;;;;4997191;28;20070;-66
2021/03/01 12:36:00;;;;;;;28.38;15.75;;;;;;;;;;4988820;28;20117;-67
2021/03/01 12:38:25;;;;;;;30.00;15.18;;;;;;;;;;4988933;28;20042;-66
2021/03/01 12:40:51;;;;;;;31.92;15.07;;;;;;;;;;4995572;28;20091;-66
2021/03/01 12:43:16;;;;;;;27.10;14.93;;;;;;;;;;5007586;28;20045;-66
2021/03/01 12:45:41;;;;;;;34.35;16.75;;;;;;;;;;5008940;28;20033;-66
2021/03/01 12:48:07;;;;;;;30.80;16.38;;;;;;;;;;4991278;28;20542;-67
2021/03/01 12:50:32;;;;;;;33.38;15.93;;;;;;;;;;5003499;28;20104;-67
2021/03/01 12:52:57;;;;;;;33.47;16.50;;;;;;;;;;4996523;28;20034;-66
2021/03/01 12:55:22;;;;;;;34.13;16.42;;;;;;;;;;5000749;28;20033;-66
2021/03/01 12:57:48;;;;;;;27.33;14.30;;;;;;;;;;4991612;28;20434;-66
2021/03/01 13:00:14;;;;;;;33.53;16.55;;;;;;;;;;4975668;28;20034;-66
2021/03/01 13:02:39;;;;;;;30.15;16.23;;;;;;;;;;4989929;28;20034;-66
2021/03/01 13:05:05;;;;;;;32.72;16.42;;;;;;;;;;4988914;28;20022;-67
2021/03/01 13:07:30;;;;;;;30.38;16.73;;;;;;;;;;4991093;28;20480;-67
2021/03/01 13:09:55;;;;;;;35.45;16.60;;;;;;;;;;4998866;28;20049;-66
2021/03/01 13:12:21;;;;;;;30.58;16.27;;;;;;;;;;4987757;28;20026;-66
2021/03/01 13:14:46;;;;;;;32.08;16.95;;;;;;;;;;4996027;28;20097;-67
2021/03/01 13:17:11;;;;;;;36.67;17.60;;;;;;;;;;4995887;28;20037;-66
2021/03/01 13:19:37;;;;;;;32.40;15.77;;;;;;;;;;4990860;28;20026;-66
2021/03/01 13:22:02;;;;;;;33.38;17.33;;;;;;;;;;4986985;28;20479;-66
2021/03/01 13:24:27;;;;;;;31.02;16.65;;;;;;;;;;5002616;28;20045;-66
2021/03/01 13:26:53;;;;;;;36.38;18.27;;;;;;;;;;4980442;28;20030;-68
2021/03/01 13:29:18;;;;;;;31.25;16.20;;;;;;;;;;4985110;28;20044;-66
2021/03/01 13:31:43;;;;;;;35.97;17.80;;;;;;;;;;4993637;28;20079;-67
2021/03/01 13:34:09;;;;;;;33.28;16.63;;;;;;;;;;4985069;28;20038;-66
2021/03/01 13:36:34;;;;;;;37.15;17.98;;;;;;;;;;4990118;28;20036;-66
2021/03/01 13:39:00;;;;;;;33.88;17.45;;;;;;;;;;4995783;28;20154;-66
2021/03/01 13:41:25;;;;;;;33.97;18.33;;;;;;;;;;4997258;28;20040;-66
2021/03/01 13:43:50;;;;;;;36.08;17.90;;;;;;;;;;4999565;28;20141;-67
2021/03/01 13:46:16;;;;;;;34.63;18.52;;;;;;;;;;5001615;28;20533;-67
2021/03/01 13:48:41;;;;;;;33.33;17.67;;;;;;;;;;4987082;28;20029;-66
2021/03/01 13:51:06;;;;;;;40.08;18.98;;;;;;;;;;4986490;28;20129;-67
2021/03/01 13:53:32;;;;;;;35.85;17.77;;;;;;;;;;4999419;28;20050;-68
2021/03/01 13:55:57;;;;;;;36.35;19.45;;;;;;;;;;4988309;28;20456;-67
2021/03/01 13:58:22;;;;;;;37.15;18.70;;;;;;;;;;4987220;28;20034;-67
2021/03/01 14:00:48;;;;;;;32.00;15.75;;;;;;;;;;4987089;28;20030;-66
2021/03/01 14:03:13;;;;;;;46.00;20.17;;;;;;;;;;4983361;28;20121;-66
2021/03/01 14:05:38;;;;;;;38.75;19.33;;;;;;;;;;4984416;28;20041;-66
2021/03/01 14:08:04;;;;;;;42.20;18.88;;;;;;;;;;4987521;28;20654;-66
2021/03/01 14:10:29;;;;;;;36.35;17.95;;;;;;;;;;4987387;28;20478;-66
2021/03/01 14:12:54;;;;;;;34.28;18.13;;;;;;;;;;4994778;28;20505;-67